Station History

Weather Underground - logo

Station Historical Data
Daily Summary for November 28, 2017 Units:  English    Metric   Both
« Previous Day
Next Day »
Daily Weekly Monthly Yearly Custom
  High: Low: Average:
Temperature: 62.0 °F 39.3 °F 52.7 °F
Dew Point: 48.1 °F 38.3 °F 45.2 °F
Humidity: 96 % 56 % 77 %
Wind Speed: 3.5 mph 0.0 mph 0.6 mph
Wind Gust: 3.5 mph - -
Wind:- - WSW
Pressure: 30.18 in 30.04 in -
Precipitation: 0.00 in    
Historical Graphs
 
 
Tabular Data for November 28, 2017
Time Temperature Dew Point Pressure Wind Wind Speed Wind Gust Humidity Rainfall Rate (Hourly)
07:37 39.3 °F 38.3 °F 30.15 in Calm     96 % 0.00 in
07:47 41.4 °F 40.3 °F 30.15 in Calm     96 % 0.00 in
07:52 42.9 °F 41.8 °F 30.16 in Calm     96 % 0.00 in
07:57 44.4 °F 43.3 °F 30.16 in Calm     96 % 0.00 in
08:02 45.5 °F 44.4 °F 30.16 in Calm     96 % 0.00 in
08:07 46.3 °F 43.8 °F 30.16 in Calm     91 % 0.00 in
08:12 47.2 °F 43.8 °F 30.16 in Calm     88 % 0.00 in
08:17 47.1 °F 43.4 °F 30.17 in Calm     87 % 0.00 in
08:27 48.3 °F 44.0 °F 30.17 in SSE 1.2 mph   85 % 0.00 in
08:32 48.8 °F 44.2 °F 30.17 in Calm     84 % 0.00 in
08:37 49.1 °F 44.5 °F 30.17 in Calm     84 % 0.00 in
08:42 49.4 °F 44.1 °F 30.17 in SSE 2.3 mph 2.3 mph 82 % 0.00 in
08:47 49.5 °F 44.6 °F 30.17 in Calm   0.1 mph 83 % 0.00 in
08:52 49.8 °F 44.8 °F 30.18 in South 1.0 mph   83 % 0.00 in
08:58 50.2 °F 44.6 °F 30.18 in SSE 1.2 mph 1.2 mph 81 % 0.00 in
09:07 50.9 °F 45.3 °F 30.18 in SE 1.2 mph   81 % 0.00 in
09:13 51.1 °F 45.1 °F 30.18 in Calm   0.1 mph 80 % 0.00 in
09:23 51.2 °F 44.9 °F 30.18 in Calm     79 % 0.00 in
09:28 51.7 °F 45.1 °F 30.18 in SE 1.2 mph   78 % 0.00 in
09:33 51.9 °F 44.9 °F 30.18 in ENE 2.3 mph 2.3 mph 77 % 0.00 in
09:38 52.4 °F 46.1 °F 30.18 in SSE 1.2 mph 1.2 mph 79 % 0.00 in
09:53 53.4 °F 46.0 °F 30.18 in Calm     76 % 0.00 in
09:58 53.9 °F 45.4 °F 30.18 in Calm     73 % 0.00 in
10:04 54.2 °F 45.7 °F 30.18 in Calm     73 % 0.00 in
10:09 54.7 °F 45.8 °F 30.17 in Calm     72 % 0.00 in
10:14 55.0 °F 45.0 °F 30.17 in Calm     69 % 0.00 in
10:19 55.2 °F 45.6 °F 30.17 in NNW 1.2 mph 1.2 mph 70 % 0.00 in
10:24 55.6 °F 45.6 °F 30.17 in WNW 1.2 mph 1.2 mph 69 % 0.00 in
10:29 55.6 °F 45.2 °F 30.17 in NNE 2.3 mph 2.3 mph 68 % 0.00 in
10:34 55.9 °F 45.1 °F 30.17 in NW 2.3 mph 2.3 mph 67 % 0.00 in
10:39 56.3 °F 45.5 °F 30.16 in Calm     67 % 0.00 in
10:44 56.7 °F 45.9 °F 30.17 in WNW 2.3 mph 2.3 mph 67 % 0.00 in
10:49 56.7 °F 45.9 °F 30.16 in Calm     67 % 0.00 in
10:54 57.3 °F 46.4 °F 30.16 in Calm     67 % 0.00 in
11:09 57.5 °F 45.8 °F 30.15 in NW 1.2 mph 1.2 mph 65 % 0.00 in
11:14 57.8 °F 45.7 °F 30.15 in NW 1.2 mph   64 % 0.00 in
11:19 58.1 °F 46.0 °F 30.15 in WNW 1.2 mph 1.2 mph 64 % 0.00 in
11:24 58.1 °F 46.0 °F 30.15 in NW 2.0 mph 2.0 mph 64 % 0.00 in
11:30 58.2 °F 46.1 °F 30.14 in WNW 1.2 mph 1.2 mph 64 % 0.00 in
11:35 58.8 °F 47.1 °F 30.14 in NW 1.2 mph 1.2 mph 65 % 0.00 in
11:39 59.0 °F 46.4 °F 30.14 in NE 2.3 mph 2.3 mph 63 % 0.00 in
11:40 59.0 °F 46.4 °F 30.14 in West 2.0 mph 2.0 mph 63 % 0.00 in
11:45 59.1 °F 46.5 °F 30.14 in NW 1.2 mph 1.2 mph 63 % 0.00 in
11:50 59.3 °F 46.7 °F 30.14 in NNW 2.3 mph 2.3 mph 63 % 0.00 in
11:55 59.3 °F 45.8 °F 30.14 in NNW 1.2 mph 1.2 mph 61 % 0.00 in
12:00 59.4 °F 45.9 °F 30.14 in Calm   0.3 mph 61 % 0.00 in
12:05 59.7 °F 46.2 °F 30.13 in NW 3.5 mph 3.5 mph 61 % 0.00 in
12:10 59.9 °F 46.8 °F 30.13 in Calm   0.4 mph 62 % 0.00 in
12:15 59.9 °F 46.0 °F 30.13 in WNW 1.2 mph   60 % 0.00 in
12:25 60.6 °F 46.6 °F 30.12 in WNW 1.2 mph   60 % 0.00 in
12:30 60.8 °F 45.9 °F 30.12 in NW 1.0 mph   58 % 0.00 in
12:40 60.3 °F 46.4 °F 30.10 in NW 1.2 mph 1.2 mph 60 % 0.00 in
12:50 60.5 °F 45.6 °F 30.10 in WNW 1.2 mph 1.2 mph 58 % 0.00 in
12:55 60.5 °F 46.1 °F 30.09 in Calm     59 % 0.00 in
13:05 61.4 °F 46.5 °F 30.09 in NNE 1.2 mph   58 % 0.00 in
13:10 61.6 °F 45.7 °F 30.09 in NW 1.2 mph 1.2 mph 56 % 0.00 in
13:15 61.6 °F 46.7 °F 30.09 in NW 2.3 mph 2.3 mph 58 % 0.00 in
13:20 61.4 °F 46.0 °F 30.08 in WNW 3.5 mph 3.5 mph 57 % 0.00 in
13:25 61.3 °F 46.4 °F 30.08 in NW 1.2 mph 1.2 mph 58 % 0.00 in
13:37 61.7 °F 46.8 °F 30.07 in North 1.2 mph   58 % 0.00 in
13:47 61.9 °F 47.0 °F 30.07 in NNE 2.0 mph 2.0 mph 58 % 0.00 in
13:52 61.8 °F 46.4 °F 30.07 in NW 2.3 mph 2.3 mph 57 % 0.00 in
13:57 61.8 °F 46.4 °F 30.07 in North 3.5 mph 3.5 mph 57 % 0.00 in
14:02 61.8 °F 46.4 °F 30.07 in North 1.2 mph 1.2 mph 57 % 0.00 in
14:08 61.8 °F 45.9 °F 30.06 in WSW 1.2 mph 1.2 mph 56 % 0.00 in
14:23 61.9 °F 46.0 °F 30.07 in NW 3.5 mph 3.5 mph 56 % 0.00 in
14:28 62.0 °F 46.6 °F 30.07 in WNW 2.3 mph 2.3 mph 57 % 0.00 in
14:33 61.9 °F 46.5 °F 30.06 in NW 3.5 mph 3.5 mph 57 % 0.00 in
14:38 61.7 °F 45.8 °F 30.06 in WNW 1.2 mph 1.2 mph 56 % 0.00 in
14:58 61.1 °F 46.7 °F 30.06 in NW 3.5 mph 3.5 mph 59 % 0.00 in
15:03 61.0 °F 46.1 °F 30.06 in West 2.3 mph 2.3 mph 58 % 0.00 in
15:08 61.1 °F 46.7 °F 30.05 in NW 1.2 mph   59 % 0.00 in
15:13 61.0 °F 46.6 °F 30.05 in NW 3.0 mph 3.0 mph 59 % 0.00 in
15:18 60.9 °F 46.0 °F 30.05 in NW 1.2 mph 1.2 mph 58 % 0.00 in
15:33 60.2 °F 46.3 °F 30.04 in NW 2.0 mph 2.0 mph 60 % 0.00 in
15:38 60.0 °F 46.5 °F 30.04 in NW 2.3 mph 2.3 mph 61 % 0.00 in
15:43 59.8 °F 46.7 °F 30.04 in Calm     62 % 0.00 in
15:48 59.4 °F 47.2 °F 30.05 in Calm     64 % 0.00 in
15:53 59.1 °F 47.3 °F 30.05 in Calm     65 % 0.00 in
16:03 58.5 °F 47.6 °F 30.05 in Calm     67 % 0.00 in
16:18 57.4 °F 48.1 °F 30.05 in Calm     71 % 0.00 in
16:23 57.1 °F 47.8 °F 30.05 in Calm     71 % 0.00 in
16:28 56.7 °F 47.4 °F 30.05 in Calm     71 % 0.00 in
16:33 56.4 °F 47.5 °F 30.05 in Calm     72 % 0.00 in
16:38 55.9 °F 47.0 °F 30.06 in Calm     72 % 0.00 in
16:53 54.7 °F 46.9 °F 30.07 in Calm     75 % 0.00 in
16:58 54.1 °F 47.0 °F 30.07 in Calm     77 % 0.00 in
17:04 53.7 °F 47.0 °F 30.07 in Calm     78 % 0.00 in
17:14 52.9 °F 46.9 °F 30.08 in Calm     80 % 0.00 in
17:19 52.5 °F 46.5 °F 30.08 in Calm     80 % 0.00 in
17:24 52.1 °F 46.4 °F 30.08 in Calm     81 % 0.00 in
17:39 51.9 °F 46.3 °F 30.08 in Calm     81 % 0.00 in
17:44 51.7 °F 46.1 °F 30.09 in Calm     81 % 0.00 in
17:49 51.4 °F 46.1 °F 30.09 in Calm     82 % 0.00 in
17:54 51.1 °F 46.1 °F 30.09 in Calm     83 % 0.00 in
18:04 50.6 °F 45.6 °F 30.09 in Calm     83 % 0.00 in
18:09 50.4 °F 45.7 °F 30.09 in Calm     84 % 0.00 in
18:19 50.6 °F 45.9 °F 30.10 in Calm     84 % 0.00 in
18:24 50.7 °F 45.7 °F 30.10 in Calm     83 % 0.00 in
18:29 50.8 °F 45.8 °F 30.10 in Calm     83 % 0.00 in
18:34 50.8 °F 45.8 °F 30.10 in Calm     83 % 0.00 in
18:39 50.6 °F 45.9 °F 30.10 in Calm     84 % 0.00 in
18:44 50.4 °F 45.7 °F 30.10 in Calm     84 % 0.00 in
19:04 49.7 °F 45.4 °F 30.11 in Calm     85 % 0.00 in
19:09 49.5 °F 45.5 °F 30.11 in Calm     86 % 0.00 in
19:16 49.3 °F 45.6 °F 30.12 in Calm     87 % 0.00 in
19:20 49.3 °F 45.6 °F 30.11 in Calm     87 % 0.00 in
19:22 49.4 °F 45.7 °F 30.11 in Calm     87 % 0.00 in
19:30 49.5 °F 45.5 °F 30.12 in Calm     86 % 0.00 in
19:32 49.4 °F 45.1 °F 30.12 in Calm     85 % 0.00 in
19:37 49.2 °F 45.2 °F 30.12 in Calm     86 % 0.00 in
19:42 49.1 °F 45.1 °F 30.12 in Calm     86 % 0.00 in
19:52 48.6 °F 44.9 °F 30.12 in Calm     87 % 0.00 in
19:57 48.3 °F 44.6 °F 30.12 in Calm     87 % 0.00 in
20:02 48.2 °F 44.8 °F 30.12 in Calm     88 % 0.00 in
20:07 48.1 °F 44.7 °F 30.12 in Calm     88 % 0.00 in
20:12 47.9 °F 44.8 °F 30.12 in Calm     89 % 0.00 in
20:17 47.7 °F 44.3 °F 30.12 in Calm     88 % 0.00 in
20:22 47.6 °F 44.5 °F 30.12 in Calm     89 % 0.00 in
20:27 47.6 °F 44.8 °F 30.12 in Calm     90 % 0.00 in
20:37 47.4 °F 44.6 °F 30.12 in Calm     90 % 0.00 in
20:42 47.3 °F 44.5 °F 30.12 in Calm     90 % 0.00 in
20:47 47.2 °F 44.4 °F 30.12 in Calm     90 % 0.00 in
20:52 47.1 °F 44.3 °F 30.12 in Calm     90 % 0.00 in
20:57 47.1 °F 44.3 °F 30.12 in Calm     90 % 0.00 in
21:07 46.9 °F 44.1 °F 30.12 in Calm     90 % 0.00 in
21:12 46.9 °F 44.1 °F 30.12 in Calm     90 % 0.00 in
21:17 46.6 °F 43.8 °F 30.12 in Calm     90 % 0.00 in
21:22 46.5 °F 43.7 °F 30.12 in Calm     90 % 0.00 in
21:27 46.2 °F 43.4 °F 30.13 in Calm     90 % 0.00 in
21:37 45.7 °F 43.2 °F 30.13 in Calm     91 % 0.00 in
21:47 45.6 °F 43.4 °F 30.13 in Calm     92 % 0.00 in
21:52 45.6 °F 43.4 °F 30.13 in Calm     92 % 0.00 in
21:57 45.9 °F 43.7 °F 30.13 in Calm     92 % 0.00 in
22:12 46.2 °F 44.0 °F 30.14 in Calm     92 % 0.00 in
22:22 46.0 °F 43.2 °F 30.14 in SE 1.2 mph   90 % 0.00 in
22:27 45.5 °F 42.7 °F 30.14 in SE 1.2 mph   90 % 0.00 in
22:32 45.3 °F 42.8 °F 30.14 in SE 1.2 mph 1.2 mph 91 % 0.00 in
22:37 45.5 °F 43.3 °F 30.14 in Calm     92 % 0.00 in
22:42 45.7 °F 43.5 °F 30.14 in Calm     92 % 0.00 in
22:52 45.7 °F 43.5 °F 30.15 in Calm     92 % 0.00 in
22:57 45.6 °F 43.1 °F 30.15 in Calm     91 % 0.00 in
23:02 45.5 °F 43.3 °F 30.15 in Calm     92 % 0.00 in
23:07 45.4 °F 43.2 °F 30.15 in Calm     92 % 0.00 in
23:17 45.2 °F 43.0 °F 30.15 in Calm     92 % 0.00 in
23:22 45.2 °F 43.0 °F 30.15 in SE 1.2 mph   92 % 0.00 in
23:27 45.2 °F 43.0 °F 30.15 in Calm     92 % 0.00 in
23:32 45.3 °F 43.1 °F 30.15 in Calm     92 % 0.00 in
23:37 45.3 °F 43.1 °F 30.15 in Calm     92 % 0.00 in
23:42 45.3 °F 43.1 °F 30.15 in Calm     92 % 0.00 in
23:47 45.3 °F 43.1 °F 30.15 in Calm     92 % 0.00 in
23:52 45.2 °F 43.0 °F 30.15 in Calm     92 % 0.00 in
23:57 45.0 °F 42.8 °F 30.15 in Calm     92 % 0.00 in
Park Place, Exeter, Tulare County, California, USA
Compliments of Weather Underground - 2 mb